Time;durP1;ratioP1;P1;durP2;ratioP2;P2;SDS_P1;SDS_P2;PMS_P1;PMS_P2;Temp;Humidity;BMP_temperature;BMP_pressure;BME280_temperature;BME280_humidity;BME280_pressure;Samples;Min_cycle;Max_cycle;Signal;HPM_P1;HPM_P2
2022/10/16 00:00:36;;;;;;;12.57;11.87;;;;;;;14.95;100.00;96649.81;5094022;28;20292;-61
2022/10/16 00:03:02;;;;;;;12.60;12.00;;;;;;;14.99;100.00;96658.78;5094023;28;20169;-61
2022/10/16 00:05:29;;;;;;;12.50;11.77;;;;;;;15.05;100.00;96656.16;5093825;28;20176;-61
2022/10/16 00:07:54;;;;;;;12.70;11.97;;;;;;;14.86;100.00;96651.34;5093895;28;20240;-61
2022/10/16 00:10:20;;;;;;;11.17;10.57;;;;;;;15.01;100.00;96647.19;5094037;28;20180;-61
2022/10/16 00:12:46;;;;;;;9.93;9.30;;;;;;;15.02;100.00;96649.56;5093618;28;20702;-62
2022/10/16 00:15:12;;;;;;;10.13;9.53;;;;;;;15.05;100.00;96650.88;5093591;28;20207;-60
2022/10/16 00:17:37;;;;;;;15.27;14.27;;;;;;;14.89;100.00;96650.81;5093512;28;20210;-61
2022/10/16 00:20:03;;;;;;;15.50;14.37;;;;;;;14.83;100.00;96645.78;5091165;28;20232;-61
2022/10/16 00:22:28;;;;;;;15.23;14.43;;;;;;;14.66;100.00;96653.06;5093414;28;20173;-62
2022/10/16 00:24:53;;;;;;;14.77;13.97;;;;;;;14.82;100.00;96646.84;5093848;28;20169;-60
2022/10/16 00:27:19;;;;;;;14.23;13.33;;;;;;;14.80;100.00;96648.94;5093526;28;20211;-60
2022/10/16 00:29:44;;;;;;;10.60;10.00;;;;;;;14.75;100.00;96656.84;5093274;28;20173;-60
2022/10/16 00:32:09;;;;;;;10.23;9.63;;;;;;;14.62;100.00;96655.44;5093161;28;20248;-60
2022/10/16 00:34:35;;;;;;;11.30;10.60;;;;;;;14.65;100.00;96654.94;5092837;28;20180;-60
2022/10/16 00:37:00;;;;;;;12.77;12.07;;;;;;;14.77;100.00;96650.22;5093467;28;20201;-62
2022/10/16 00:39:26;;;;;;;13.30;12.50;;;;;;;14.64;100.00;96655.97;5093211;28;20620;-61
2022/10/16 00:41:51;;;;;;;14.00;13.03;;;;;;;14.76;100.00;96656.59;5092939;28;20180;-60
2022/10/16 00:44:44;;;;;;;12.33;11.63;;;;;;;14.54;100.00;96651.41;5092842;28;20168;-61
2022/10/16 00:47:17;;;;;;;11.23;10.63;;;;;;;14.47;100.00;96648.22;5092817;28;20261;-60
2022/10/16 00:49:43;;;;;;;15.43;14.50;;;;;;;14.55;100.00;96649.56;5092024;28;20204;-61
2022/10/16 00:52:10;;;;;;;15.93;15.07;;;;;;;14.45;100.00;96649.50;5079650;28;20598;-61
2022/10/16 00:54:35;;;;;;;15.73;14.93;;;;;;;14.50;100.00;96650.34;5093257;28;20179;-61
2022/10/16 00:57:04;;;;;;;12.33;11.53;;;;;;;14.53;100.00;96649.06;5092780;28;20200;-60
2022/10/16 00:59:36;;;;;;;12.80;11.80;;;;;;;14.54;100.00;96645.38;5092874;28;20220;-61
2022/10/16 01:02:03;;;;;;;15.43;14.33;;;;;;;14.44;100.00;96645.28;5093049;28;20544;-61
2022/10/16 01:04:34;;;;;;;12.80;11.97;;;;;;;14.43;100.00;96655.03;5092789;28;20559;-61
2022/10/16 01:07:25;;;;;;;11.97;11.07;;;;;;;14.38;100.00;96657.63;5092387;28;20192;-61
2022/10/16 01:10:15;;;;;;;12.93;12.13;;;;;;;14.35;100.00;96673.16;5092975;28;20165;-61
2022/10/16 01:12:50;;;;;;;12.07;11.47;;;;;;;14.33;100.00;96662.84;5093211;28;20230;-61
2022/10/16 01:15:47;;;;;;;12.43;10.10;;;;;;;14.39;100.00;96667.16;5092696;28;20256;-61
2022/10/16 01:18:28;;;;;;;11.67;10.97;;;;;;;14.38;100.00;96668.19;5092733;28;20184;-61
2022/10/16 01:21:04;;;;;;;10.03;9.33;;;;;;;14.53;100.00;96668.31;5090436;28;20781;-61
2022/10/16 01:23:50;;;;;;;10.83;10.23;;;;;;;14.54;100.00;96669.88;5091833;28;20178;-61
2022/10/16 01:26:36;;;;;;;13.23;12.00;;;;;;;14.55;100.00;96675.94;5090993;28;20718;-61
2022/10/16 01:29:15;;;;;;;12.03;11.37;;;;;;;14.52;100.00;96668.56;5092897;28;20176;-61
2022/10/16 01:31:46;;;;;;;10.87;10.07;;;;;;;14.53;100.00;96668.31;5092551;28;20168;-61
2022/10/16 01:34:17;;;;;;;11.20;10.60;;;;;;;14.60;100.00;96649.59;5091920;28;20176;-61
2022/10/16 01:36:53;;;;;;;12.10;11.40;;;;;;;14.72;100.00;96665.25;5092426;28;20196;-60
2022/10/16 01:39:22;;;;;;;11.77;11.07;;;;;;;14.55;100.00;96671.47;5091893;28;20203;-61
2022/10/16 01:42:05;;;;;;;11.07;10.43;;;;;;;14.49;100.00;96672.47;5092171;28;20260;-58
2022/10/16 01:44:34;;;;;;;10.20;9.50;;;;;;;14.53;100.00;96660.41;5092470;28;20245;-60
2022/10/16 01:47:00;;;;;;;13.20;12.40;;;;;;;14.62;100.00;96652.00;5092067;28;20703;-62
2022/10/16 01:49:31;;;;;;;13.00;12.03;;;;;;;14.69;100.00;96648.09;5093026;28;20248;-61
2022/10/16 01:52:00;;;;;;;12.73;11.73;;;;;;;14.62;100.00;96650.16;5091896;28;20184;-61
2022/10/16 01:54:29;;;;;;;10.97;10.20;;;;;;;14.57;100.00;96650.91;5092617;28;20161;-60
2022/10/16 01:56:57;;;;;;;10.07;9.27;;;;;;;14.47;100.00;96650.88;5092197;28;20200;-60
2022/10/16 01:59:25;;;;;;;10.80;9.80;;;;;;;14.57;100.00;96644.84;5092049;28;20185;-61
2022/10/16 02:01:56;;;;;;;13.17;12.37;;;;;;;14.72;100.00;96644.13;5092029;28;20648;-60
2022/10/16 02:04:30;;;;;;;12.67;11.87;;;;;;;14.64;100.00;96648.06;5096325;28;20565;-61
2022/10/16 02:06:55;;;;;;;11.20;10.60;;;;;;;14.68;100.00;96645.69;5096268;28;20207;-61
2022/10/16 02:09:21;;;;;;;13.07;12.27;;;;;;;14.71;100.00;96638.06;5096119;28;20168;-61
2022/10/16 02:11:48;;;;;;;15.03;14.20;;;;;;;14.65;100.00;96641.75;5095926;28;20188;-61
2022/10/16 02:14:14;;;;;;;14.13;13.33;;;;;;;14.72;100.00;96646.78;5095788;28;20173;-61
2022/10/16 02:16:45;;;;;;;13.57;12.87;;;;;;;14.81;100.00;96647.88;5095989;28;20210;-61
2022/10/16 02:19:13;;;;;;;14.87;13.97;;;;;;;14.76;100.00;96653.94;5095681;28;20180;-60
2022/10/16 02:21:57;;;;;;;14.30;13.20;;;;;;;14.76;100.00;96658.41;5092947;28;20256;-61
2022/10/16 02:24:50;;;;;;;13.30;12.33;;;;;;;14.63;100.00;96656.22;5096024;28;20267;-60
2022/10/16 02:27:33;;;;;;;10.33;9.63;;;;;;;14.69;100.00;96663.13;5096042;28;20200;-61
2022/10/16 02:30:34;;;;;;;10.27;9.67;;;;;;;14.78;100.00;96665.00;5095626;28;20255;-61
2022/10/16 02:33:02;;;;;;;12.93;12.13;;;;;;;14.73;100.00;96656.28;5043802;28;20226;-61
2022/10/16 02:35:29;;;;;;;13.73;12.93;;;;;;;14.81;100.00;96653.97;5094736;28;20652;-61
2022/10/16 02:37:56;;;;;;;12.70;12.00;;;;;;;14.79;100.00;96650.78;5095780;28;20188;-61
2022/10/16 02:40:23;;;;;;;13.47;12.67;;;;;;;14.80;100.00;96641.81;5095122;28;20196;-61
2022/10/16 02:42:51;;;;;;;14.97;13.73;;;;;;;14.66;100.00;96637.25;5094598;28;20198;-61
2022/10/16 02:45:17;;;;;;;13.73;12.77;;;;;;;14.57;100.00;96636.94;5084679;28;20184;-61
2022/10/16 02:47:42;;;;;;;14.50;13.70;;;;;;;14.50;100.00;96647.72;5095211;28;20521;-62
2022/10/16 02:50:08;;;;;;;12.23;11.43;;;;;;;14.66;100.00;96645.94;5095148;28;20184;-61
2022/10/16 02:52:33;;;;;;;11.40;10.80;;;;;;;14.60;100.00;96649.59;5095293;28;20218;-61
2022/10/16 02:54:59;;;;;;;14.37;13.60;;;;;;;14.52;100.00;96647.47;5095276;28;20169;-60
2022/10/16 02:57:24;;;;;;;14.60;13.70;;;;;;;14.70;100.00;96651.53;5095016;28;20210;-61
2022/10/16 02:59:50;;;;;;;14.30;13.37;;;;;;;14.66;100.00;96658.34;5094782;28;20266;-61
2022/10/16 03:02:15;;;;;;;11.67;11.03;;;;;;;14.65;100.00;96670.75;5094894;28;20187;-61
2022/10/16 03:04:40;;;;;;;13.60;12.83;;;;;;;14.67;100.00;96663.38;5095008;28;20625;-61
2022/10/16 03:07:06;;;;;;;13.43;12.73;;;;;;;14.67;100.00;96662.56;5094920;28;20235;-61
2022/10/16 03:09:31;;;;;;;16.80;15.60;;;;;;;14.67;100.00;96662.56;5095134;28;20169;-61
2022/10/16 03:11:57;;;;;;;15.37;14.47;;;;;;;14.69;100.00;96669.19;5094926;28;20555;-61
2022/10/16 03:14:22;;;;;;;15.13;14.23;;;;;;;14.60;100.00;96664.66;5093824;28;20211;-60
2022/10/16 03:16:47;;;;;;;15.17;14.33;;;;;;;14.68;100.00;96662.31;5094973;28;20238;-60
2022/10/16 03:19:13;;;;;;;16.23;15.33;;;;;;;14.70;100.00;96662.88;5094953;28;20180;-61
2022/10/16 03:21:38;;;;;;;14.97;13.97;;;;;;;14.59;100.00;96658.59;5091898;28;20308;-60
2022/10/16 03:24:04;;;;;;;14.43;13.63;;;;;;;14.74;100.00;96661.31;5094581;28;20180;-62
2022/10/16 03:26:29;;;;;;;14.83;14.03;;;;;;;14.56;100.00;96661.72;5094672;28;20197;-61
2022/10/16 03:28:55;;;;;;;14.10;13.00;;;;;;;14.71;100.00;96663.69;5094729;28;20184;-62
2022/10/16 03:31:20;;;;;;;10.17;9.67;;;;;;;14.67;100.00;96666.00;5094250;28;20201;-61
2022/10/16 03:33:46;;;;;;;9.80;9.10;;;;;;;14.58;100.00;96667.53;5093196;28;20196;-60
2022/10/16 03:36:11;;;;;;;9.63;8.87;;;;;;;14.61;100.00;96659.13;5094334;28;20702;-60
2022/10/16 03:38:36;;;;;;;8.00;7.53;;;;;;;14.68;100.00;96659.69;5094396;28;20177;-61
2022/10/16 03:41:02;;;;;;;9.43;8.93;;;;;;;14.64;100.00;96655.19;5094005;28;20685;-61
2022/10/16 03:43:28;;;;;;;9.97;9.47;;;;;;;14.48;100.00;96663.00;5094389;28;20168;-61
2022/10/16 03:45:53;;;;;;;9.57;8.97;;;;;;;14.48;100.00;96667.47;5093534;28;20286;-61
2022/10/16 03:48:19;;;;;;;9.87;9.17;;;;;;;14.53;100.00;96660.41;5094020;28;20176;-61
2022/10/16 03:50:46;;;;;;;10.30;9.70;;;;;;;14.48;100.00;96663.00;5093941;28;20538;-61
2022/10/16 03:53:11;;;;;;;8.63;8.13;;;;;;;14.53;100.00;96657.75;5094174;28;20173;-62
2022/10/16 03:55:37;;;;;;;10.23;9.53;;;;;;;14.41;100.00;96669.53;5093644;28;20223;-62
2022/10/16 03:58:02;;;;;;;9.27;8.77;;;;;;;14.49;100.00;96672.47;5075759;28;20188;-62
2022/10/16 04:00:28;;;;;;;8.33;7.93;;;;;;;14.52;100.00;96679.91;5093823;28;20192;-62
2022/10/16 04:02:54;;;;;;;10.27;9.67;;;;;;;14.49;100.00;96672.47;5075064;28;20225;-61
2022/10/16 04:05:19;;;;;;;12.20;11.33;;;;;;;14.52;100.00;96666.72;5093391;28;20176;-62
2022/10/16 04:07:45;;;;;;;10.87;10.27;;;;;;;14.49;100.00;96669.06;5093570;28;20188;-61
2022/10/16 04:10:10;;;;;;;12.53;11.83;;;;;;;14.52;100.00;96665.91;5093608;28;20172;-61
2022/10/16 04:12:36;;;;;;;10.83;10.33;;;;;;;14.50;100.00;96666.16;5093714;28;20180;-61
2022/10/16 04:15:01;;;;;;;11.00;10.40;;;;;;;14.51;100.00;96672.25;5093346;28;20176;-61
2022/10/16 04:17:27;;;;;;;10.03;9.37;;;;;;;14.62;100.00;96673.09;5093211;28;20283;-62
2022/10/16 04:19:52;;;;;;;8.57;8.03;;;;;;;14.75;100.00;96678.72;5090782;28;20362;-61
2022/10/16 04:22:17;;;;;;;9.60;8.90;;;;;;;14.56;100.00;96673.06;5093145;28;20195;-61
2022/10/16 04:24:43;;;;;;;9.40;8.80;;;;;;;14.59;100.00;96679.69;5093375;28;20172;-61
2022/10/16 04:27:08;;;;;;;8.33;7.83;;;;;;;14.64;100.00;96671.81;5092793;28;20212;-61
2022/10/16 04:29:34;;;;;;;8.33;7.93;;;;;;;14.73;100.00;96680.81;5093544;28;20192;-62
2022/10/16 04:31:59;;;;;;;10.43;9.83;;;;;;;14.63;100.00;96667.56;5076814;28;20690;-61
2022/10/16 04:34:25;;;;;;;9.43;8.63;;;;;;;14.69;100.00;96666.56;5092401;28;20188;-62
2022/10/16 04:36:50;;;;;;;10.53;9.87;;;;;;;14.70;100.00;96672.63;5092708;28;20211;-62
2022/10/16 04:39:17;;;;;;;10.47;9.67;;;;;;;14.70;100.00;96677.91;5093016;28;20173;-61
2022/10/16 04:41:42;;;;;;;9.73;9.03;;;;;;;14.69;100.00;96677.13;5092870;28;20238;-62
2022/10/16 04:44:08;;;;;;;9.70;8.90;;;;;;;14.73;100.00;96672.91;5074637;28;20176;-61
2022/10/16 04:46:33;;;;;;;8.97;8.37;;;;;;;14.67;100.00;96678.41;5092727;28;20200;-61
2022/10/16 04:48:59;;;;;;;9.77;9.10;;;;;;;14.67;100.00;96683.69;5092707;28;20181;-60
2022/10/16 04:51:25;;;;;;;8.90;8.33;;;;;;;14.68;100.00;96687.91;5092661;28;20640;-61
2022/10/16 04:53:51;;;;;;;8.50;7.67;;;;;;;14.59;100.00;96687.59;5092813;28;20177;-61
2022/10/16 04:56:17;;;;;;;8.43;8.03;;;;;;;14.55;100.00;96692.56;5092664;28;20712;-61
2022/10/16 04:58:42;;;;;;;7.97;7.40;;;;;;;14.67;100.00;96692.38;5092873;28;20173;-61
2022/10/16 05:01:08;;;;;;;8.73;8.23;;;;;;;14.70;100.00;96697.19;5092415;28;20212;-62
2022/10/16 05:03:33;;;;;;;8.43;7.87;;;;;;;14.71;100.00;96703.25;5092214;28;20175;-62
2022/10/16 05:05:59;;;;;;;9.67;9.00;;;;;;;14.69;100.00;96705.34;5092493;28;20200;-61
2022/10/16 05:08:24;;;;;;;9.17;8.50;;;;;;;14.75;100.00;96706.97;5092884;28;20258;-61
2022/10/16 05:10:50;;;;;;;8.60;8.10;;;;;;;14.77;100.00;96710.13;5092452;28;20204;-61
2022/10/16 05:13:15;;;;;;;13.77;13.00;;;;;;;14.79;100.00;96705.38;5092497;28;20176;-61
2022/10/16 05:15:41;;;;;;;16.90;16.00;;;;;;;14.80;100.00;96709.63;5091996;28;20200;-61
2022/10/16 05:18:06;;;;;;;18.10;16.87;;;;;;;14.84;100.00;96715.97;5092410;28;20223;-62
2022/10/16 05:20:32;;;;;;;20.23;18.80;;;;;;;14.88;100.00;96709.94;5090215;28;20285;-61
2022/10/16 05:22:57;;;;;;;17.37;16.40;;;;;;;14.83;100.00;96703.81;5091709;28;20180;-60
2022/10/16 05:25:23;;;;;;;16.63;15.73;;;;;;;14.73;100.00;96711.69;5074017;28;20180;-61
2022/10/16 05:27:49;;;;;;;17.60;16.50;;;;;;;14.77;100.00;96708.28;5092201;28;20173;-60
2022/10/16 05:30:16;;;;;;;15.77;14.97;;;;;;;14.66;100.00;96698.72;5092278;28;20589;-61
2022/10/16 05:32:42;;;;;;;14.97;14.00;;;;;;;14.63;100.00;96701.88;5092133;28;20648;-61
2022/10/16 05:35:07;;;;;;;12.80;12.10;;;;;;;14.56;100.00;96696.81;5091208;28;20188;-61
2022/10/16 05:37:33;;;;;;;13.73;12.77;;;;;;;14.52;100.00;96708.13;5091629;28;20207;-61
2022/10/16 05:39:58;;;;;;;13.10;12.20;;;;;;;14.45;100.00;96708.34;5091860;28;20200;-61
2022/10/16 05:42:23;;;;;;;10.70;10.13;;;;;;;14.51;100.00;96707.31;5091768;28;20192;-61
2022/10/16 05:44:49;;;;;;;10.33;9.83;;;;;;;14.43;100.00;96710.41;5091516;28;20255;-61
2022/10/16 05:47:14;;;;;;;10.20;9.60;;;;;;;14.49;100.00;96713.88;5092160;28;20207;-60
2022/10/16 05:49:40;;;;;;;10.93;10.33;;;;;;;14.42;100.00;96719.41;5091806;28;20173;-61
2022/10/16 05:52:06;;;;;;;9.13;8.67;;;;;;;14.53;100.00;96723.69;5091971;28;20322;-61
2022/10/16 05:54:31;;;;;;;10.87;10.23;;;;;;;14.47;100.00;96716.00;5092190;28;20176;-65
2022/10/16 05:56:57;;;;;;;12.00;10.70;;;;;;;14.51;100.00;96723.16;5091965;28;20302;-62
2022/10/16 05:59:22;;;;;;;11.90;11.20;;;;;;;14.59;100.00;96716.63;5091860;28;20208;-60
2022/10/16 06:01:47;;;;;;;10.13;9.33;;;;;;;14.50;100.00;96732.09;5091995;28;20185;-60
2022/10/16 06:04:13;;;;;;;9.27;8.37;;;;;;;14.68;100.00;96728.28;5091894;28;20909;-60
2022/10/16 06:06:39;;;;;;;10.93;10.23;;;;;;;14.63;100.00;96735.38;5092009;28;20687;-61
2022/10/16 06:09:04;;;;;;;14.80;13.90;;;;;;;14.72;100.00;96733.84;5091764;28;20185;-60
2022/10/16 06:11:32;;;;;;;16.37;15.37;;;;;;;14.82;100.00;96741.84;5092154;28;20181;-60
2022/10/16 06:14:01;;;;;;;21.57;20.33;;;;;;;14.80;100.00;96741.28;5092001;28;20657;-59
2022/10/16 06:16:27;;;;;;;18.00;16.93;;;;;;;14.66;100.00;96742.75;5091697;28;20249;-61
2022/10/16 06:18:55;;;;;;;20.33;19.23;;;;;;;14.76;100.00;96742.84;5091907;28;20188;-60
2022/10/16 06:21:25;;;;;;;13.73;12.53;;;;;;;14.68;100.00;96743.31;5089312;28;20241;-61
2022/10/16 06:23:50;;;;;;;6.87;6.47;;;;;;;15.09;100.00;96757.56;5091750;28;20185;-61
2022/10/16 06:26:19;;;;;;;6.47;5.97;;;;;;;15.16;100.00;96755.47;5091641;28;20207;-62
2022/10/16 06:28:45;;;;;;;9.97;9.17;;;;;;;15.03;100.00;96759.38;5091848;28;20772;-61
2022/10/16 06:31:11;;;;;;;10.70;10.10;;;;;;;15.07;100.00;96760.47;5091603;28;20264;-61
2022/10/16 06:33:38;;;;;;;9.07;8.57;;;;;;;14.96;100.00;96758.81;5090875;28;20671;-61
2022/10/16 06:36:15;;;;;;;14.27;13.27;;;;;;;15.14;100.00;96765.53;5091315;28;20204;-61
2022/10/16 06:38:41;;;;;;;11.07;10.47;;;;;;;15.18;100.00;96751.53;5091607;28;20267;-61
2022/10/16 06:41:08;;;;;;;22.87;21.67;;;;;;;15.24;100.00;96752.38;5091115;28;20206;-62
2022/10/16 06:43:37;;;;;;;33.30;31.50;;;;;;;15.46;100.00;96757.47;5091298;28;20215;-61
2022/10/16 06:46:04;;;;;;;19.60;18.47;;;;;;;15.61;100.00;96765.50;5091769;28;20219;-61
2022/10/16 06:48:30;;;;;;;12.00;11.30;;;;;;;15.66;100.00;96770.81;5091426;28;20184;-61
2022/10/16 06:51:10;;;;;;;10.23;9.43;;;;;;;15.75;100.00;96778.00;5095614;28;20184;-60
2022/10/16 06:53:37;;;;;;;11.47;10.80;;;;;;;15.77;100.00;96778.50;5095718;28;20172;-65
2022/10/16 06:56:24;;;;;;;15.63;14.83;;;;;;;15.96;100.00;96781.47;5095697;28;20203;-61
2022/10/16 06:58:50;;;;;;;15.50;14.70;;;;;;;15.95;100.00;96787.00;5095568;28;20177;-59
2022/10/16 07:01:17;;;;;;;11.60;11.00;;;;;;;15.93;100.00;96783.84;5094982;28;20257;-60
2022/10/16 07:03:45;;;;;;;9.20;8.70;;;;;;;15.76;100.00;96786.72;5094839;28;20173;-60
2022/10/16 07:06:12;;;;;;;7.20;6.70;;;;;;;15.83;100.00;96789.13;5094978;28;20196;-59
2022/10/16 07:08:40;;;;;;;7.10;6.80;;;;;;;15.98;100.00;96789.97;5094519;28;20275;-61
2022/10/16 07:11:09;;;;;;;8.53;8.00;;;;;;;16.04;100.00;96791.56;5094800;28;20184;-59
2022/10/16 07:13:40;;;;;;;9.27;8.77;;;;;;;16.04;100.00;96799.50;5093932;28;20192;-61
2022/10/16 07:16:06;;;;;;;13.33;12.50;;;;;;;16.16;100.00;96804.56;5094379;28;20208;-61
2022/10/16 07:18:32;;;;;;;15.50;14.70;;;;;;;16.20;100.00;96800.31;5094156;28;20255;-61
2022/10/16 07:21:05;;;;;;;14.53;13.53;;;;;;;16.19;100.00;96818.03;5092207;28;20696;-60
2022/10/16 07:23:30;;;;;;;37.43;34.60;;;;;;;16.12;100.00;96822.75;5094003;28;20271;-61
2022/10/16 07:25:55;;;;;;;7.40;6.90;;;;;;;16.09;100.00;96828.59;5094404;28;20338;-61
2022/10/16 07:28:21;;;;;;;8.27;7.77;;;;;;;16.15;100.00;96822.25;5089979;28;20188;-61
2022/10/16 07:30:47;;;;;;;9.13;8.57;;;;;;;16.07;100.00;96835.97;5094256;28;20181;-60
2022/10/16 07:33:13;;;;;;;9.60;8.90;;;;;;;16.13;100.00;96840.22;5093686;28;20184;-60
2022/10/16 07:35:48;;;;;;;9.43;8.90;;;;;;;16.87;100.00;96847.78;5093635;28;20309;-60
2022/10/16 07:38:13;;;;;;;22.80;20.90;;;;;;;17.00;100.00;96835.84;5094110;28;20491;-62
2022/10/16 07:40:39;;;;;;;6.10;5.60;;;;;;;16.72;100.00;96850.41;5092593;28;20203;-60
2022/10/16 07:43:05;;;;;;;4.93;4.53;;;;;;;16.43;100.00;96851.94;5093045;28;20180;-63
2022/10/16 07:45:30;;;;;;;4.90;4.70;;;;;;;16.22;100.00;96854.53;5094127;28;20220;-65
2022/10/16 07:47:56;;;;;;;10.82;10.27;;;;;;;16.40;100.00;96849.81;5093565;28;20786;-60
2022/10/16 07:50:21;;;;;;;13.50;12.57;;;;;;;16.42;100.00;96851.16;5093755;28;20703;-63
2022/10/16 07:52:46;;;;;;;9.88;9.38;;;;;;;16.46;100.00;96851.41;5090251;28;20183;-63
2022/10/16 07:55:12;;;;;;;12.40;11.70;;;;;;;16.50;100.00;96852.47;5089826;28;20295;-62
2022/10/16 07:57:37;;;;;;;14.93;14.13;;;;;;;16.43;100.00;96857.25;5089858;28;20291;-63
2022/10/16 08:00:03;;;;;;;14.00;13.20;;;;;;;16.48;100.00;96865.19;5064132;28;20299;-62
2022/10/16 08:02:28;;;;;;;16.50;15.63;;;;;;;16.56;100.00;96872.59;5093669;28;20202;-62
2022/10/16 08:04:54;;;;;;;16.80;16.00;;;;;;;16.47;100.00;96866.22;5093473;28;20171;-61
2022/10/16 08:07:19;;;;;;;11.63;10.97;;;;;;;16.60;100.00;96865.78;5093758;28;20283;-62
2022/10/16 08:09:49;;;;;;;8.97;8.50;;;;;;;16.59;100.00;96870.25;5093615;28;20176;-63
2022/10/16 08:12:15;;;;;;;11.88;9.15;;;;;;;16.68;100.00;96869.72;5093962;28;20185;-64
2022/10/16 08:14:40;;;;;;;11.90;11.20;;;;;;;16.91;100.00;96869.22;5093683;28;20268;-63
2022/10/16 08:17:05;;;;;;;11.83;11.23;;;;;;;17.07;100.00;96870.03;5093607;28;20227;-62
2022/10/16 08:19:34;;;;;;;23.67;22.33;;;;;;;17.09;100.00;96874.00;5093445;28;20203;-63
2022/10/16 08:21:56;;;;;;;13.50;12.80;;;;;;;17.14;100.00;96860.75;5091108;28;20232;-62
2022/10/16 08:24:22;;;;;;;11.65;11.02;;;;;;;17.18;100.00;96867.09;5091762;28;20188;-63
2022/10/16 08:26:47;;;;;;;8.65;8.05;;;;;;;17.26;100.00;96866.56;5093959;28;20207;-63
2022/10/16 08:29:14;;;;;;;10.57;9.57;;;;;;;17.50;100.00;96873.97;5093516;28;20561;-61
2022/10/16 08:31:39;;;;;;;13.45;11.77;;;;;;;17.64;100.00;96877.66;5093679;28;20594;-63
2022/10/16 08:34:05;;;;;;;10.95;10.23;;;;;;;17.65;100.00;96876.59;5092143;28;20185;-62
2022/10/16 08:36:30;;;;;;;10.30;9.70;;;;;;;17.84;100.00;96883.69;5093094;28;20249;-62
2022/10/16 08:38:56;;;;;;;12.48;11.63;;;;;;;17.97;100.00;96882.34;5093198;28;20196;-62
2022/10/16 08:41:27;;;;;;;39.17;37.03;;;;;;;18.06;100.00;96886.00;5085722;28;20188;-62
2022/10/16 08:44:24;;;;;;;35.05;33.25;;;;;;;17.97;100.00;96892.16;5092936;28;20259;-63
2022/10/16 08:47:10;;;;;;;38.97;36.97;;;;;;;17.81;100.00;96904.66;5087235;28;20559;-63
2022/10/16 08:49:38;;;;;;;38.95;36.72;;;;;;;17.90;100.00;96899.59;5083363;28;20525;-63
2022/10/16 08:52:03;;;;;;;51.33;48.60;;;;;;;17.81;100.00;96896.72;5091833;28;20175;-63
2022/10/16 08:54:31;;;;;;;54.03;51.20;;;;;;;17.79;100.00;96896.97;5091915;28;20165;-64
2022/10/16 08:57:00;;;;;;;40.75;38.65;;;;;;;17.98;100.00;96891.09;5092385;28;20192;-63
2022/10/16 08:59:26;;;;;;;32.67;31.00;;;;;;;17.86;100.00;96894.84;5091456;28;20187;-63
2022/10/16 09:01:52;;;;;;;29.02;27.50;;;;;;;17.72;100.00;96901.75;5083378;28;20180;-63
2022/10/16 09:04:39;;;;;;;27.13;25.60;;;;;;;18.00;100.00;96910.19;5080211;28;20183;-63
2022/10/16 09:07:28;;;;;;;24.35;23.05;;;;;;;18.30;100.00;96907.41;5082055;28;20224;-62
2022/10/16 09:10:24;;;;;;;24.42;23.00;;;;;;;18.24;100.00;96913.81;5080459;28;20239;-61
2022/10/16 09:13:26;;;;;;;23.33;22.05;;;;;;;18.36;100.00;96908.97;5074487;28;21603;-62
2022/10/16 09:16:07;;;;;;;23.60;22.08;;;;;;;18.59;99.55;96913.66;5069983;28;20204;-61
2022/10/16 09:18:42;;;;;;;30.33;28.67;;;;;;;18.76;97.52;96910.66;5091884;28;20263;-61
2022/10/16 09:21:13;;;;;;;29.92;28.33;;;;;;;18.74;97.23;96894.19;5089755;28;20224;-64
2022/10/16 09:23:39;;;;;;;25.77;23.20;;;;;;;18.79;95.56;96902.13;5092402;28;20180;-61
2022/10/16 09:26:09;;;;;;;19.13;18.02;;;;;;;18.79;95.99;96911.94;5092022;28;20204;-63
2022/10/16 09:28:34;;;;;;;28.88;27.30;;;;;;;18.67;95.99;96913.06;5092408;28;20233;-62
2022/10/16 09:30:59;;;;;;;24.35;22.88;;;;;;;18.61;96.09;96921.38;5092263;28;20195;-63
2022/10/16 09:33:32;;;;;;;26.17;24.77;;;;;;;18.48;97.09;96925.38;5086872;28;20231;-61
2022/10/16 09:35:58;;;;;;;27.52;26.10;;;;;;;18.55;95.87;96925.13;5091677;28;20721;-61
2022/10/16 09:38:33;;;;;;;33.97;32.20;;;;;;;18.49;97.30;96926.16;5092324;28;20221;-63
2022/10/16 09:41:00;;;;;;;31.58;29.95;;;;;;;18.64;96.71;96929.56;5084895;28;20191;-61
2022/10/16 09:43:39;;;;;;;33.65;31.67;;;;;;;18.88;94.15;96935.00;5091001;28;20185;-62
2022/10/16 09:46:21;;;;;;;41.70;39.47;;;;;;;18.95;94.17;96924.84;5081664;28;20208;-61
2022/10/16 09:48:51;;;;;;;36.80;34.72;;;;;;;19.06;93.24;96929.03;5092464;28;20164;-61
2022/10/16 09:51:25;;;;;;;34.55;32.60;;;;;;;19.20;93.40;96931.06;5092222;28;20164;-61
2022/10/16 09:53:56;;;;;;;30.13;28.52;;;;;;;19.26;91.43;96932.59;5073440;28;20237;-61
2022/10/16 09:56:25;;;;;;;37.95;35.92;;;;;;;19.42;91.35;96932.19;5091347;28;20184;-61
2022/10/16 09:58:57;;;;;;;21.00;19.50;;;;;;;19.48;90.77;96933.78;5074506;28;20626;-61
2022/10/16 10:01:28;;;;;;;20.88;19.77;;;;;;;19.50;90.68;96928.19;5071987;28;20201;-61
2022/10/16 10:04:01;;;;;;;28.38;26.63;;;;;;;19.54;91.67;96926.56;5072094;28;20563;-61
2022/10/16 10:06:40;;;;;;;16.92;16.02;;;;;;;19.60;90.48;96937.94;5072469;28;20208;-61
2022/10/16 10:09:23;;;;;;;15.27;14.38;;;;;;;19.72;89.55;96936.50;5072141;28;20174;-61
2022/10/16 10:11:56;;;;;;;32.95;31.05;;;;;;;19.85;88.55;96937.69;5071753;28;20197;-61
2022/10/16 10:14:25;;;;;;;45.90;43.28;;;;;;;20.04;87.21;96943.06;5072015;28;20311;-63
2022/10/16 10:16:52;;;;;;;51.30;48.45;;;;;;;19.97;88.61;96940.75;5072272;28;20193;-62
2022/10/16 10:19:23;;;;;;;103.50;97.95;;;;;;;20.07;87.26;96943.28;5071750;28;20647;-62
2022/10/16 10:21:51;;;;;;;120.70;114.07;;;;;;;20.06;87.68;96939.03;5069516;28;20236;-61
2022/10/16 10:24:18;;;;;;;142.35;134.75;;;;;;;20.21;85.97;96949.53;5073659;28;20184;-62
2022/10/16 10:27:12;;;;;;;126.15;119.50;;;;;;;20.13;84.32;96949.34;5075529;28;20196;-62
2022/10/16 10:29:53;;;;;;;100.20;94.63;;;;;;;20.19;83.60;96945.56;5075998;28;20189;-62
2022/10/16 10:32:28;;;;;;;107.20;101.55;;;;;;;20.21;83.21;96946.09;5075184;28;20185;-62
2022/10/16 10:35:04;;;;;;;95.82;90.80;;;;;;;20.08;83.12;96947.53;5075983;28;20169;-62
2022/10/16 10:37:32;;;;;;;96.03;90.78;;;;;;;20.15;81.78;96939.22;5075412;28;20212;-61
2022/10/16 10:40:15;;;;;;;185.93;175.82;;;;;;;20.25;82.19;96939.91;5075255;28;20220;-60
2022/10/16 10:43:04;;;;;;;63.15;59.67;;;;;;;20.44;79.05;96947.19;5074559;28;20169;-62
2022/10/16 10:45:44;;;;;;;43.10;40.70;;;;;;;20.52;78.65;96951.84;5074689;28;20173;-62
2022/10/16 10:48:21;;;;;;;33.40;31.58;;;;;;;20.55;77.24;96952.09;5082436;28;20294;-61
2022/10/16 10:51:00;;;;;;;25.42;23.77;;;;;;;20.43;76.80;96953.56;5074467;28;20256;-62
2022/10/16 10:53:51;;;;;;;24.88;23.65;;;;;;;20.40;77.17;96954.13;5076090;28;20263;-60
2022/10/16 10:56:23;;;;;;;28.00;26.52;;;;;;;20.43;77.63;96954.38;5070908;28;20213;-63
2022/10/16 10:59:30;;;;;;;33.50;31.70;;;;;;;20.33;78.37;96943.84;5075125;28;20166;-61
2022/10/16 11:02:10;;;;;;;25.45;24.05;;;;;;;20.39;79.47;96957.88;5032760;28;20672;-61
2022/10/16 11:05:00;;;;;;;23.88;22.55;;;;;;;20.48;78.92;96956.16;5080868;28;20174;-61
2022/10/16 11:07:31;;;;;;;46.13;43.63;;;;;;;20.51;76.70;96948.38;5074928;28;20632;-63
2022/10/16 11:10:15;;;;;;;43.17;40.75;;;;;;;20.65;74.68;96959.16;5075368;28;20193;-62
2022/10/16 11:12:47;;;;;;;40.90;38.55;;;;;;;20.71;74.07;96950.00;5075074;28;20699;-61
2022/10/16 11:15:28;;;;;;;43.47;41.17;;;;;;;20.72;74.31;96943.63;5074489;28;20193;-62
2022/10/16 11:18:04;;;;;;;33.08;31.27;;;;;;;20.79;72.12;96945.94;5064955;28;20213;-63
2022/10/16 11:20:40;;;;;;;34.92;33.13;;;;;;;20.92;73.38;96948.66;5064393;28;20286;-62
2022/10/16 11:23:24;;;;;;;28.67;27.05;;;;;;;20.88;73.08;96939.66;5054362;28;20666;-63
2022/10/16 11:25:51;;;;;;;25.00;23.67;;;;;;;20.98;73.72;96941.38;5062690;28;20209;-63